Widowville, Ohio
Current Conditions -  °F | °C
As of 12:52 PM on Monday 26 Jan 2015 (Local Time) from KMFD Reporting Station
Overcast Overcast  
Wind Chill:   Ceiling: 1000
Heat Index: 19°   Visibility: 10mi
Dew Point: 14°   Wind: 13mph
Humidity: 81%   Direction: 330°NNW
Pressure: 29.8"   Gusts: NA
Location:  40.8738°N, 82.3197°W
Report Text: KMFD 261752Z 33011KT 10SM OVC010 M07/M10 A2980 RMK AO2 SLP111 60003 T10721100 11067 21083 58002
Loading
Personal Weather Stations






























Interactive Weather Map New forecast layout! Learn more

10-Day Weather Forecast

Advertisements
Track Severe Weather on mobile